sensor_id;sensor_type;location;lat;lon;timestamp;noise_LAeq;noise_LA_min;noise_LA_max;noise_LA01;noise_LA95
72028;Laerm;59781;52.090;5.030;2023-07-09T00:02:02;38.87;36.58;42.98;;
72028;Laerm;59781;52.090;5.030;2023-07-09T00:04:28;38.30;36.22;40.73;;
72028;Laerm;59781;52.090;5.030;2023-07-09T00:07:00;42.31;37.12;54.55;;
72028;Laerm;59781;52.090;5.030;2023-07-09T00:09:27;39.08;36.83;43.17;;
72028;Laerm;59781;52.090;5.030;2023-07-09T00:11:52;39.03;36.92;51.49;;
72028;Laerm;59781;52.090;5.030;2023-07-09T00:14:18;39.85;36.67;49.54;;
72028;Laerm;59781;52.090;5.030;2023-07-09T00:16:45;39.52;36.91;48.82;;
72028;Laerm;59781;52.090;5.030;2023-07-09T00:19:20;38.61;36.92;48.77;;
72028;Laerm;59781;52.090;5.030;2023-07-09T00:21:50;39.08;36.88;45.04;;
72028;Laerm;59781;52.090;5.030;2023-07-09T00:24:19;38.72;36.77;40.49;;
72028;Laerm;59781;52.090;5.030;2023-07-09T00:26:45;38.66;36.47;44.88;;
72028;Laerm;59781;52.090;5.030;2023-07-09T00:29:16;39.14;36.71;61.17;;
72028;Laerm;59781;52.090;5.030;2023-07-09T00:31:42;39.79;37.03;45.34;;
72028;Laerm;59781;52.090;5.030;2023-07-09T00:34:10;39.57;37.06;46.55;;
72028;Laerm;59781;52.090;5.030;2023-07-09T00:36:42;38.74;36.80;41.53;;
72028;Laerm;59781;52.090;5.030;2023-07-09T00:39:19;38.45;36.82;43.38;;
72028;Laerm;59781;52.090;5.030;2023-07-09T00:41:46;38.47;36.63;40.23;;
72028;Laerm;59781;52.090;5.030;2023-07-09T00:44:31;39.53;36.81;45.41;;
72028;Laerm;59781;52.090;5.030;2023-07-09T00:49:40;38.60;36.62;43.24;;
72028;Laerm;59781;52.090;5.030;2023-07-09T00:52:27;41.56;36.83;52.95;;
72028;Laerm;59781;52.090;5.030;2023-07-09T00:55:00;38.60;36.53;41.34;;
72028;Laerm;59781;52.090;5.030;2023-07-09T00:57:29;38.89;36.83;42.29;;
72028;Laerm;59781;52.090;5.030;2023-07-09T01:00:07;38.85;36.97;45.03;;
72028;Laerm;59781;52.090;5.030;2023-07-09T01:02:45;39.02;36.88;44.54;;
72028;Laerm;59781;52.090;5.030;2023-07-09T01:05:16;39.66;36.92;45.77;;
72028;Laerm;59781;52.090;5.030;2023-07-09T01:07:46;38.64;36.67;41.88;;
72028;Laerm;59781;52.090;5.030;2023-07-09T01:10:16;38.74;36.83;42.08;;
72028;Laerm;59781;52.090;5.030;2023-07-09T01:12:46;38.74;36.07;43.38;;
72028;Laerm;59781;52.090;5.030;2023-07-09T01:15:13;38.23;35.80;49.63;;
72028;Laerm;59781;52.090;5.030;2023-07-09T01:17:41;37.97;36.09;43.25;;
72028;Laerm;59781;52.090;5.030;2023-07-09T01:20:18;38.36;36.28;44.74;;
72028;Laerm;59781;52.090;5.030;2023-07-09T01:22:49;37.84;35.99;42.30;;
72028;Laerm;59781;52.090;5.030;2023-07-09T01:25:16;38.18;36.16;43.18;;
72028;Laerm;59781;52.090;5.030;2023-07-09T01:27:46;38.22;36.05;42.56;;
72028;Laerm;59781;52.090;5.030;2023-07-09T01:30:32;38.22;35.90;47.39;;
72028;Laerm;59781;52.090;5.030;2023-07-09T01:33:01;37.98;35.91;41.69;;
72028;Laerm;59781;52.090;5.030;2023-07-09T01:35:32;37.95;35.80;43.47;;
72028;Laerm;59781;52.090;5.030;2023-07-09T01:38:00;38.76;36.16;47.41;;
72028;Laerm;59781;52.090;5.030;2023-07-09T01:40:28;37.48;35.56;41.03;;
72028;Laerm;59781;52.090;5.030;2023-07-09T01:42:56;37.21;35.34;42.66;;
72028;Laerm;59781;52.090;5.030;2023-07-09T01:45:24;38.22;35.35;45.97;;
72028;Laerm;59781;52.090;5.030;2023-07-09T01:47:50;37.54;35.42;41.26;;
72028;Laerm;59781;52.090;5.030;2023-07-09T01:50:16;37.78;35.84;42.30;;
72028;Laerm;59781;52.090;5.030;2023-07-09T01:52:46;39.05;35.69;44.38;;
72028;Laerm;59781;52.090;5.030;2023-07-09T01:55:14;38.26;35.89;44.56;;
72028;Laerm;59781;52.090;5.030;2023-07-09T01:57:43;37.58;35.52;39.31;;
72028;Laerm;59781;52.090;5.030;2023-07-09T02:00:15;37.91;35.65;47.70;;
72028;Laerm;59781;52.090;5.030;2023-07-09T02:02:45;37.56;35.84;40.24;;
72028;Laerm;59781;52.090;5.030;2023-07-09T02:05:16;38.23;35.90;44.97;;
72028;Laerm;59781;52.090;5.030;2023-07-09T02:07:43;37.74;35.75;44.88;;
72028;Laerm;59781;52.090;5.030;2023-07-09T02:10:16;37.43;35.63;41.81;;
72028;Laerm;59781;52.090;5.030;2023-07-09T02:12:42;40.87;36.01;49.29;;
72028;Laerm;59781;52.090;5.030;2023-07-09T02:15:10;37.56;35.79;39.26;;
72028;Laerm;59781;52.090;5.030;2023-07-09T02:17:36;37.33;35.61;40.40;;
72028;Laerm;59781;52.090;5.030;2023-07-09T02:20:03;37.40;35.67;38.97;;
72028;Laerm;59781;52.090;5.030;2023-07-09T02:22:30;37.67;35.49;46.91;;
72028;Laerm;59781;52.090;5.030;2023-07-09T02:24:57;37.63;35.36;47.84;;
72028;Laerm;59781;52.090;5.030;2023-07-09T02:27:23;37.44;35.96;40.65;;
72028;Laerm;59781;52.090;5.030;2023-07-09T02:29:49;37.98;36.09;57.02;;
72028;Laerm;59781;52.090;5.030;2023-07-09T02:32:24;38.72;36.11;47.65;;
72028;Laerm;59781;52.090;5.030;2023-07-09T02:34:52;38.82;36.12;44.94;;
72028;Laerm;59781;52.090;5.030;2023-07-09T02:37:22;37.77;36.08;49.27;;
72028;Laerm;59781;52.090;5.030;2023-07-09T02:39:49;38.02;35.95;53.80;;
72028;Laerm;59781;52.090;5.030;2023-07-09T02:42:19;37.94;36.19;43.08;;
72028;Laerm;59781;52.090;5.030;2023-07-09T02:44:46;38.12;36.35;43.58;;
72028;Laerm;59781;52.090;5.030;2023-07-09T02:47:13;38.16;36.27;42.29;;
72028;Laerm;59781;52.090;5.030;2023-07-09T02:49:40;39.04;36.45;42.47;;
72028;Laerm;59781;52.090;5.030;2023-07-09T02:52:06;41.41;35.96;52.44;;
72028;Laerm;59781;52.090;5.030;2023-07-09T02:54:33;38.26;36.12;48.44;;
72028;Laerm;59781;52.090;5.030;2023-07-09T02:56:59;38.24;36.40;46.28;;
72028;Laerm;59781;52.090;5.030;2023-07-09T02:59:25;37.85;35.83;43.05;;
72028;Laerm;59781;52.090;5.030;2023-07-09T03:01:52;38.16;35.97;43.02;;
72028;Laerm;59781;52.090;5.030;2023-07-09T03:04:18;37.99;36.41;41.04;;
72028;Laerm;59781;52.090;5.030;2023-07-09T03:06:46;38.17;36.01;48.66;;
72028;Laerm;59781;52.090;5.030;2023-07-09T03:09:12;38.68;35.62;51.28;;
72028;Laerm;59781;52.090;5.030;2023-07-09T03:11:38;38.02;36.17;46.96;;
72028;Laerm;59781;52.090;5.030;2023-07-09T03:14:04;37.85;36.25;40.79;;
72028;Laerm;59781;52.090;5.030;2023-07-09T03:16:33;38.66;36.30;50.29;;
72028;Laerm;59781;52.090;5.030;2023-07-09T03:19:01;38.85;36.24;57.25;;
72028;Laerm;59781;52.090;5.030;2023-07-09T03:21:28;39.53;36.07;45.52;;
72028;Laerm;59781;52.090;5.030;2023-07-09T03:23:55;39.10;36.36;44.97;;
72028;Laerm;59781;52.090;5.030;2023-07-09T03:26:21;39.78;36.42;56.33;;
72028;Laerm;59781;52.090;5.030;2023-07-09T03:28:47;40.18;36.68;57.72;;
72028;Laerm;59781;52.090;5.030;2023-07-09T03:31:13;38.66;36.39;47.53;;
72028;Laerm;59781;52.090;5.030;2023-07-09T03:33:38;39.34;36.49;56.27;;
72028;Laerm;59781;52.090;5.030;2023-07-09T03:36:05;40.38;36.53;64.76;;
72028;Laerm;59781;52.090;5.030;2023-07-09T03:38:31;39.13;36.30;61.97;;
72028;Laerm;59781;52.090;5.030;2023-07-09T03:40:57;40.62;36.22;48.56;;
72028;Laerm;59781;52.090;5.030;2023-07-09T03:43:23;39.07;36.15;50.88;;
72028;Laerm;59781;52.090;5.030;2023-07-09T03:45:50;38.07;36.24;48.10;;
72028;Laerm;59781;52.090;5.030;2023-07-09T03:48:19;39.36;36.11;55.80;;
72028;Laerm;59781;52.090;5.030;2023-07-09T03:50:47;39.59;36.03;56.76;;
72028;Laerm;59781;52.090;5.030;2023-07-09T03:53:15;38.52;36.02;55.94;;
72028;Laerm;59781;52.090;5.030;2023-07-09T03:55:41;39.20;35.74;62.99;;
72028;Laerm;59781;52.090;5.030;2023-07-09T03:58:07;38.42;36.11;45.84;;
72028;Laerm;59781;52.090;5.030;2023-07-09T04:00:34;38.02;36.02;41.55;;
72028;Laerm;59781;52.090;5.030;2023-07-09T04:03:00;38.39;35.76;51.56;;
72028;Laerm;59781;52.090;5.030;2023-07-09T04:05:27;38.07;36.12;45.40;;
72028;Laerm;59781;52.090;5.030;2023-07-09T04:07:54;38.34;36.03;46.02;;
72028;Laerm;59781;52.090;5.030;2023-07-09T04:10:20;38.27;35.97;50.71;;
72028;Laerm;59781;52.090;5.030;2023-07-09T04:12:46;38.32;35.81;45.70;;
72028;Laerm;59781;52.090;5.030;2023-07-09T04:15:13;37.66;35.66;44.09;;
72028;Laerm;59781;52.090;5.030;2023-07-09T04:17:40;38.47;36.09;53.79;;
72028;Laerm;59781;52.090;5.030;2023-07-09T04:20:08;39.86;35.79;58.06;;
72028;Laerm;59781;52.090;5.030;2023-07-09T04:22:37;39.30;36.03;55.93;;
72028;Laerm;59781;52.090;5.030;2023-07-09T04:25:07;47.75;36.93;59.98;;
72028;Laerm;59781;52.090;5.030;2023-07-09T04:27:37;39.41;36.29;50.61;;
72028;Laerm;59781;52.090;5.030;2023-07-09T04:30:06;40.22;36.26;60.90;;
72028;Laerm;59781;52.090;5.030;2023-07-09T04:32:34;43.77;36.27;62.08;;
72028;Laerm;59781;52.090;5.030;2023-07-09T04:35:02;44.78;36.34;75.31;;
72028;Laerm;59781;52.090;5.030;2023-07-09T04:37:31;38.34;36.18;51.80;;
72028;Laerm;59781;52.090;5.030;2023-07-09T04:39:56;38.99;36.09;60.90;;
72028;Laerm;59781;52.090;5.030;2023-07-09T04:42:22;38.53;35.78;56.35;;
72028;Laerm;59781;52.090;5.030;2023-07-09T04:44:47;38.95;36.40;59.48;;
72028;Laerm;59781;52.090;5.030;2023-07-09T04:47:13;41.63;36.41;58.37;;
72028;Laerm;59781;52.090;5.030;2023-07-09T04:49:39;41.30;36.05;65.85;;
72028;Laerm;59781;52.090;5.030;2023-07-09T04:52:05;42.71;36.18;63.09;;
72028;Laerm;59781;52.090;5.030;2023-07-09T04:54:31;38.99;36.43;55.61;;
72028;Laerm;59781;52.090;5.030;2023-07-09T04:56:58;41.30;36.51;59.17;;
72028;Laerm;59781;52.090;5.030;2023-07-09T04:59:24;40.98;36.91;51.65;;
72028;Laerm;59781;52.090;5.030;2023-07-09T05:01:49;39.95;36.29;52.77;;
72028;Laerm;59781;52.090;5.030;2023-07-09T05:04:15;38.66;35.91;44.00;;
72028;Laerm;59781;52.090;5.030;2023-07-09T05:06:41;45.98;36.20;57.79;;
72028;Laerm;59781;52.090;5.030;2023-07-09T05:09:07;41.07;36.80;54.03;;
72028;Laerm;59781;52.090;5.030;2023-07-09T05:11:36;49.01;36.91;59.03;;
72028;Laerm;59781;52.090;5.030;2023-07-09T05:14:03;42.44;36.41;66.82;;
72028;Laerm;59781;52.090;5.030;2023-07-09T05:16:29;38.46;36.09;50.58;;
72028;Laerm;59781;52.090;5.030;2023-07-09T05:18:55;41.75;35.91;64.45;;
72028;Laerm;59781;52.090;5.030;2023-07-09T05:21:21;48.01;36.25;60.57;;
72028;Laerm;59781;52.090;5.030;2023-07-09T05:23:46;39.21;36.00;53.59;;
72028;Laerm;59781;52.090;5.030;2023-07-09T05:26:12;48.16;36.21;58.87;;
72028;Laerm;59781;52.090;5.030;2023-07-09T05:28:38;45.31;35.89;59.08;;
72028;Laerm;59781;52.090;5.030;2023-07-09T05:31:07;46.11;36.36;59.01;;
72028;Laerm;59781;52.090;5.030;2023-07-09T05:33:33;39.11;35.97;49.97;;
72028;Laerm;59781;52.090;5.030;2023-07-09T05:35:58;39.76;35.93;52.50;;
72028;Laerm;59781;52.090;5.030;2023-07-09T05:38:24;40.17;36.24;54.80;;
72028;Laerm;59781;52.090;5.030;2023-07-09T05:41:00;39.97;35.84;47.66;;
72028;Laerm;59781;52.090;5.030;2023-07-09T05:43:26;39.81;35.58;52.24;;
72028;Laerm;59781;52.090;5.030;2023-07-09T05:45:52;38.23;35.63;47.94;;
72028;Laerm;59781;52.090;5.030;2023-07-09T05:48:17;47.59;37.25;62.16;;
72028;Laerm;59781;52.090;5.030;2023-07-09T05:50:43;38.97;36.13;61.10;;
72028;Laerm;59781;52.090;5.030;2023-07-09T05:53:09;38.42;35.61;59.30;;
72028;Laerm;59781;52.090;5.030;2023-07-09T05:55:34;38.18;36.01;55.10;;
72028;Laerm;59781;52.090;5.030;2023-07-09T05:58:00;38.69;35.93;55.67;;
72028;Laerm;59781;52.090;5.030;2023-07-09T06:00:26;42.05;35.78;67.80;;
72028;Laerm;59781;52.090;5.030;2023-07-09T06:02:51;46.55;36.02;73.84;;
72028;Laerm;59781;52.090;5.030;2023-07-09T06:05:17;38.80;36.26;59.97;;
72028;Laerm;59781;52.090;5.030;2023-07-09T06:07:42;40.59;35.86;66.46;;
72028;Laerm;59781;52.090;5.030;2023-07-09T06:10:09;49.78;36.79;69.60;;
72028;Laerm;59781;52.090;5.030;2023-07-09T06:12:35;41.23;36.52;59.72;;
72028;Laerm;59781;52.090;5.030;2023-07-09T06:15:01;47.12;36.97;77.98;;
72028;Laerm;59781;52.090;5.030;2023-07-09T06:17:27;51.08;36.81;65.99;;
72028;Laerm;59781;52.090;5.030;2023-07-09T06:19:53;54.45;36.45;65.80;;
72028;Laerm;59781;52.090;5.030;2023-07-09T06:22:19;54.51;36.78;65.84;;
72028;Laerm;59781;52.090;5.030;2023-07-09T06:24:45;54.69;37.08;65.82;;
72028;Laerm;59781;52.090;5.030;2023-07-09T06:27:11;55.45;38.88;66.07;;
72028;Laerm;59781;52.090;5.030;2023-07-09T06:29:37;54.64;38.46;66.04;;
72028;Laerm;59781;52.090;5.030;2023-07-09T06:32:04;51.12;39.16;70.00;;
72028;Laerm;59781;52.090;5.030;2023-07-09T06:34:29;40.28;36.84;59.66;;
72028;Laerm;59781;52.090;5.030;2023-07-09T06:36:56;39.16;36.63;44.70;;
72028;Laerm;59781;52.090;5.030;2023-07-09T06:39:22;39.61;36.80;46.97;;
72028;Laerm;59781;52.090;5.030;2023-07-09T06:41:48;43.35;36.99;58.80;;
72028;Laerm;59781;52.090;5.030;2023-07-09T06:44:44;40.96;37.03;55.40;;
72028;Laerm;59781;52.090;5.030;2023-07-09T06:47:10;50.36;37.75;62.68;;
72028;Laerm;59781;52.090;5.030;2023-07-09T06:49:36;40.16;36.38;52.12;;
72028;Laerm;59781;52.090;5.030;2023-07-09T06:52:02;43.79;36.92;64.32;;
72028;Laerm;59781;52.090;5.030;2023-07-09T06:54:27;41.65;38.68;51.69;;
72028;Laerm;59781;52.090;5.030;2023-07-09T06:56:53;39.35;36.25;46.14;;
72028;Laerm;59781;52.090;5.030;2023-07-09T06:59:19;38.22;35.73;45.73;;
72028;Laerm;59781;52.090;5.030;2023-07-09T07:01:44;39.86;36.37;57.32;;
72028;Laerm;59781;52.090;5.030;2023-07-09T07:04:10;49.76;36.98;80.60;;
72028;Laerm;59781;52.090;5.030;2023-07-09T07:06:35;39.59;35.36;52.47;;
72028;Laerm;59781;52.090;5.030;2023-07-09T07:09:01;39.35;35.82;56.02;;
72028;Laerm;59781;52.090;5.030;2023-07-09T07:11:27;40.77;36.03;65.21;;
72028;Laerm;59781;52.090;5.030;2023-07-09T07:13:55;42.68;36.21;55.16;;
72028;Laerm;59781;52.090;5.030;2023-07-09T07:16:21;43.80;36.08;52.45;;
72028;Laerm;59781;52.090;5.030;2023-07-09T07:18:47;42.30;38.52;46.61;;
72028;Laerm;59781;52.090;5.030;2023-07-09T07:21:12;40.91;36.13;52.26;;
72028;Laerm;59781;52.090;5.030;2023-07-09T07:23:38;47.21;37.12;60.75;;
72028;Laerm;59781;52.090;5.030;2023-07-09T07:26:04;39.81;37.03;52.78;;
72028;Laerm;59781;52.090;5.030;2023-07-09T07:28:30;42.00;37.17;68.73;;
72028;Laerm;59781;52.090;5.030;2023-07-09T07:31:05;51.11;37.90;64.32;;
72028;Laerm;59781;52.090;5.030;2023-07-09T07:33:33;39.53;37.09;49.61;;
72028;Laerm;59781;52.090;5.030;2023-07-09T07:35:58;42.02;36.90;63.57;;
72028;Laerm;59781;52.090;5.030;2023-07-09T07:38:24;42.23;37.65;53.14;;
72028;Laerm;59781;52.090;5.030;2023-07-09T07:40:50;39.76;36.91;45.03;;
72028;Laerm;59781;52.090;5.030;2023-07-09T07:43:15;41.67;37.30;58.51;;
72028;Laerm;59781;52.090;5.030;2023-07-09T07:45:43;40.89;36.99;57.29;;
72028;Laerm;59781;52.090;5.030;2023-07-09T07:48:09;50.38;38.46;61.41;;
72028;Laerm;59781;52.090;5.030;2023-07-09T07:50:35;39.98;37.12;53.81;;
72028;Laerm;59781;52.090;5.030;2023-07-09T07:53:02;40.74;37.10;52.61;;
72028;Laerm;59781;52.090;5.030;2023-07-09T07:55:27;45.29;36.25;58.40;;
72028;Laerm;59781;52.090;5.030;2023-07-09T07:57:53;39.64;36.57;54.70;;
72028;Laerm;59781;52.090;5.030;2023-07-09T08:00:19;48.32;38.38;62.09;;
72028;Laerm;59781;52.090;5.030;2023-07-09T08:02:46;43.15;36.54;56.59;;
72028;Laerm;59781;52.090;5.030;2023-07-09T08:05:11;43.37;35.87;69.79;;
72028;Laerm;59781;52.090;5.030;2023-07-09T08:07:37;45.77;36.41;60.95;;
72028;Laerm;59781;52.090;5.030;2023-07-09T08:10:03;39.93;36.17;57.82;;
72028;Laerm;59781;52.090;5.030;2023-07-09T08:12:29;40.81;36.24;52.23;;
72028;Laerm;59781;52.090;5.030;2023-07-09T08:14:55;42.14;36.40;53.95;;
72028;Laerm;59781;52.090;5.030;2023-07-09T08:17:20;41.14;36.88;59.14;;
72028;Laerm;59781;52.090;5.030;2023-07-09T08:19:53;41.31;36.48;68.63;;
72028;Laerm;59781;52.090;5.030;2023-07-09T08:22:21;39.40;35.91;54.09;;
72028;Laerm;59781;52.090;5.030;2023-07-09T08:24:51;39.38;36.03;51.42;;
72028;Laerm;59781;52.090;5.030;2023-07-09T08:27:18;39.42;36.20;50.14;;
72028;Laerm;59781;52.090;5.030;2023-07-09T08:29:44;39.13;35.68;49.68;;
72028;Laerm;59781;52.090;5.030;2023-07-09T08:32:11;39.34;35.79;62.59;;
72028;Laerm;59781;52.090;5.030;2023-07-09T08:34:39;39.39;35.52;51.86;;
72028;Laerm;59781;52.090;5.030;2023-07-09T08:37:08;39.39;35.94;50.70;;
72028;Laerm;59781;52.090;5.030;2023-07-09T08:39:34;39.47;36.18;55.81;;
72028;Laerm;59781;52.090;5.030;2023-07-09T08:42:09;39.12;36.18;57.65;;
72028;Laerm;59781;52.090;5.030;2023-07-09T08:45:24;40.59;36.00;60.89;;
72028;Laerm;59781;52.090;5.030;2023-07-09T08:48:04;39.70;36.14;48.15;;
72028;Laerm;59781;52.090;5.030;2023-07-09T08:50:50;42.69;35.92;54.63;;
72028;Laerm;59781;52.090;5.030;2023-07-09T08:53:36;40.12;35.43;54.28;;
72028;Laerm;59781;52.090;5.030;2023-07-09T08:56:10;46.02;35.78;71.34;;
72028;Laerm;59781;52.090;5.030;2023-07-09T08:58:38;47.59;36.28;69.53;;
72028;Laerm;59781;52.090;5.030;2023-07-09T09:01:14;48.01;36.75;74.48;;
72028;Laerm;59781;52.090;5.030;2023-07-09T09:03:50;42.75;36.23;64.72;;
72028;Laerm;59781;52.090;5.030;2023-07-09T09:06:25;45.38;36.34;76.19;;
72028;Laerm;59781;52.090;5.030;2023-07-09T09:09:23;44.81;36.53;65.60;;
72028;Laerm;59781;52.090;5.030;2023-07-09T09:12:17;48.39;36.58;71.36;;
72028;Laerm;59781;52.090;5.030;2023-07-09T09:14:57;44.61;36.83;73.96;;
72028;Laerm;59781;52.090;5.030;2023-07-09T09:17:26;50.63;36.68;68.63;;
72028;Laerm;59781;52.090;5.030;2023-07-09T09:20:04;40.88;37.42;53.03;;
72028;Laerm;59781;52.090;5.030;2023-07-09T09:22:49;41.78;37.32;54.13;;
72028;Laerm;59781;52.090;5.030;2023-07-09T09:25:18;51.76;37.28;69.54;;
72028;Laerm;59781;52.090;5.030;2023-07-09T09:27:46;42.71;37.66;53.72;;
72028;Laerm;59781;52.090;5.030;2023-07-09T09:30:19;55.49;37.60;67.60;;
72028;Laerm;59781;52.090;5.030;2023-07-09T09:35:19;48.92;38.04;63.88;;
72028;Laerm;59781;52.090;5.030;2023-07-09T09:37:58;48.73;36.73;78.02;;
72028;Laerm;59781;52.090;5.030;2023-07-09T09:40:27;44.00;36.65;60.41;;
72028;Laerm;59781;52.090;5.030;2023-07-09T09:42:56;42.99;36.12;59.05;;
72028;Laerm;59781;52.090;5.030;2023-07-09T09:45:35;43.88;36.15;61.72;;
72028;Laerm;59781;52.090;5.030;2023-07-09T09:48:14;46.50;36.37;61.44;;
72028;Laerm;59781;52.090;5.030;2023-07-09T09:50:41;44.49;36.42;59.58;;
72028;Laerm;59781;52.090;5.030;2023-07-09T09:53:16;48.03;36.62;65.55;;
72028;Laerm;59781;52.090;5.030;2023-07-09T09:55:45;45.35;38.06;59.04;;
72028;Laerm;59781;52.090;5.030;2023-07-09T09:58:15;39.83;36.38;49.10;;
72028;Laerm;59781;52.090;5.030;2023-07-09T10:00:49;43.23;36.87;56.76;;
72028;Laerm;59781;52.090;5.030;2023-07-09T10:03:16;45.96;36.57;66.54;;
72028;Laerm;59781;52.090;5.030;2023-07-09T10:05:50;40.62;36.61;53.74;;
72028;Laerm;59781;52.090;5.030;2023-07-09T10:09:29;40.12;36.21;61.87;;
72028;Laerm;59781;52.090;5.030;2023-07-09T10:12:17;41.35;36.41;58.68;;
72028;Laerm;59781;52.090;5.030;2023-07-09T10:14:59;44.04;38.11;60.56;;
72028;Laerm;59781;52.090;5.030;2023-07-09T10:18:00;45.46;37.54;67.16;;
72028;Laerm;59781;52.090;5.030;2023-07-09T10:24:29;40.98;37.08;58.51;;
72028;Laerm;59781;52.090;5.030;2023-07-09T10:27:16;41.38;37.03;55.96;;
72028;Laerm;59781;52.090;5.030;2023-07-09T10:30:02;45.25;37.52;62.61;;
72028;Laerm;59781;52.090;5.030;2023-07-09T10:36:27;45.59;36.68;68.00;;
72028;Laerm;59781;52.090;5.030;2023-07-09T10:39:05;42.17;36.44;67.95;;
72028;Laerm;59781;52.090;5.030;2023-07-09T10:41:37;40.54;36.69;53.07;;
72028;Laerm;59781;52.090;5.030;2023-07-09T10:44:12;41.87;36.68;62.16;;
72028;Laerm;59781;52.090;5.030;2023-07-09T10:46:49;46.58;36.22;71.64;;
72028;Laerm;59781;52.090;5.030;2023-07-09T10:49:18;47.32;37.79;74.22;;
72028;Laerm;59781;52.090;5.030;2023-07-09T10:51:54;58.74;38.21;72.13;;
72028;Laerm;59781;52.090;5.030;2023-07-09T10:54:53;44.72;37.27;68.42;;
72028;Laerm;59781;52.090;5.030;2023-07-09T10:57:46;49.38;36.01;71.91;;
72028;Laerm;59781;52.090;5.030;2023-07-09T11:00:18;47.34;36.02;75.21;;
72028;Laerm;59781;52.090;5.030;2023-07-09T11:02:59;44.65;36.45;64.60;;
72028;Laerm;59781;52.090;5.030;2023-07-09T11:05:25;45.00;35.82;67.09;;
72028;Laerm;59781;52.090;5.030;2023-07-09T11:08:04;48.75;36.34;78.50;;
72028;Laerm;59781;52.090;5.030;2023-07-09T11:10:39;40.42;36.29;54.25;;
72028;Laerm;59781;52.090;5.030;2023-07-09T11:13:22;45.31;37.17;67.39;;
72028;Laerm;59781;52.090;5.030;2023-07-09T11:15:55;43.50;36.72;69.27;;
72028;Laerm;59781;52.090;5.030;2023-07-09T11:18:29;39.89;36.20;53.50;;
72028;Laerm;59781;52.090;5.030;2023-07-09T11:21:17;43.71;35.84;72.48;;
72028;Laerm;59781;52.090;5.030;2023-07-09T11:23:56;40.96;35.60;59.03;;
72028;Laerm;59781;52.090;5.030;2023-07-09T11:26:35;41.97;36.56;58.72;;
72028;Laerm;59781;52.090;5.030;2023-07-09T11:31:43;48.33;37.81;76.72;;
72028;Laerm;59781;52.090;5.030;2023-07-09T11:34:17;51.64;37.70;78.34;;
72028;Laerm;59781;52.090;5.030;2023-07-09T11:39:51;50.06;38.08;80.51;;
72028;Laerm;59781;52.090;5.030;2023-07-09T11:42:33;47.36;37.47;71.69;;
72028;Laerm;59781;52.090;5.030;2023-07-09T11:45:11;47.72;37.71;67.84;;
72028;Laerm;59781;52.090;5.030;2023-07-09T11:48:01;47.86;37.89;68.26;;
72028;Laerm;59781;52.090;5.030;2023-07-09T11:50:45;52.51;37.11;79.10;;
72028;Laerm;59781;52.090;5.030;2023-07-09T11:55:55;56.32;37.86;84.38;;
72028;Laerm;59781;52.090;5.030;2023-07-09T11:58:21;51.91;36.91;81.58;;
72028;Laerm;59781;52.090;5.030;2023-07-09T12:00:50;52.61;36.18;82.93;;
72028;Laerm;59781;52.090;5.030;2023-07-09T12:03:29;41.56;36.05;67.12;;
72028;Laerm;59781;52.090;5.030;2023-07-09T12:06:03;44.19;35.97;59.25;;
72028;Laerm;59781;52.090;5.030;2023-07-09T12:08:42;40.63;35.31;54.59;;
72028;Laerm;59781;52.090;5.030;2023-07-09T12:11:25;46.05;35.49;77.92;;
72028;Laerm;59781;52.090;5.030;2023-07-09T12:13:53;41.86;36.59;57.37;;
72028;Laerm;59781;52.090;5.030;2023-07-09T12:18:51;42.67;37.54;62.04;;
72028;Laerm;59781;52.090;5.030;2023-07-09T12:21:18;44.42;37.01;58.35;;
72028;Laerm;59781;52.090;5.030;2023-07-09T12:23:45;41.42;37.51;65.97;;
72028;Laerm;59781;52.090;5.030;2023-07-09T12:26:15;50.80;36.73;71.86;;
72028;Laerm;59781;52.090;5.030;2023-07-09T12:28:41;42.22;36.22;60.72;;
72028;Laerm;59781;52.090;5.030;2023-07-09T12:31:16;40.14;36.43;54.92;;
72028;Laerm;59781;52.090;5.030;2023-07-09T12:33:49;47.01;36.07;77.66;;
72028;Laerm;59781;52.090;5.030;2023-07-09T12:36:18;41.33;36.27;64.65;;
72028;Laerm;59781;52.090;5.030;2023-07-09T12:38:52;43.20;36.17;66.13;;
72028;Laerm;59781;52.090;5.030;2023-07-09T12:41:35;40.57;36.55;58.65;;
72028;Laerm;59781;52.090;5.030;2023-07-09T12:44:03;43.05;36.49;66.84;;
72028;Laerm;59781;52.090;5.030;2023-07-09T12:46:29;40.45;36.28;53.50;;
72028;Laerm;59781;52.090;5.030;2023-07-09T12:48:56;41.86;36.84;61.17;;
72028;Laerm;59781;52.090;5.030;2023-07-09T12:51:27;44.02;35.62;63.33;;
72028;Laerm;59781;52.090;5.030;2023-07-09T12:54:17;46.79;36.53;74.95;;
72028;Laerm;59781;52.090;5.030;2023-07-09T12:56:45;44.27;36.63;74.31;;
72028;Laerm;59781;52.090;5.030;2023-07-09T12:59:24;42.79;36.79;64.73;;
72028;Laerm;59781;52.090;5.030;2023-07-09T13:02:01;47.99;38.19;73.65;;
72028;Laerm;59781;52.090;5.030;2023-07-09T13:04:37;43.03;39.10;58.46;;
72028;Laerm;59781;52.090;5.030;2023-07-09T13:07:05;46.37;39.00;59.36;;
72028;Laerm;59781;52.090;5.030;2023-07-09T13:09:31;41.69;37.93;54.49;;
72028;Laerm;59781;52.090;5.030;2023-07-09T13:11:58;41.93;37.94;59.08;;
72028;Laerm;59781;52.090;5.030;2023-07-09T13:14:30;42.49;38.24;61.85;;
72028;Laerm;59781;52.090;5.030;2023-07-09T13:17:08;41.70;38.54;50.78;;
72028;Laerm;59781;52.090;5.030;2023-07-09T13:19:35;42.87;39.22;60.77;;
72028;Laerm;59781;52.090;5.030;2023-07-09T13:22:04;44.60;38.34;61.10;;
72028;Laerm;59781;52.090;5.030;2023-07-09T13:24:32;51.05;37.77;70.52;;
72028;Laerm;59781;52.090;5.030;2023-07-09T13:27:01;47.52;38.41;69.62;;
72028;Laerm;59781;52.090;5.030;2023-07-09T13:29:27;52.41;38.23;72.41;;
72028;Laerm;59781;52.090;5.030;2023-07-09T13:31:54;44.27;38.38;68.92;;
72028;Laerm;59781;52.090;5.030;2023-07-09T13:34:25;45.09;38.04;65.84;;
72028;Laerm;59781;52.090;5.030;2023-07-09T13:36:54;46.68;37.64;60.22;;
72028;Laerm;59781;52.090;5.030;2023-07-09T13:39:23;48.79;37.99;80.15;;
72028;Laerm;59781;52.090;5.030;2023-07-09T13:41:51;44.56;38.35;66.38;;
72028;Laerm;59781;52.090;5.030;2023-07-09T13:44:25;45.61;37.45;74.06;;
72028;Laerm;59781;52.090;5.030;2023-07-09T13:46:51;47.94;38.00;77.12;;
72028;Laerm;59781;52.090;5.030;2023-07-09T13:49:23;40.36;36.84;54.88;;
72028;Laerm;59781;52.090;5.030;2023-07-09T13:51:53;52.82;37.58;75.00;;
72028;Laerm;59781;52.090;5.030;2023-07-09T13:54:28;42.40;37.19;65.03;;
72028;Laerm;59781;52.090;5.030;2023-07-09T13:57:06;52.76;38.03;82.85;;
72028;Laerm;59781;52.090;5.030;2023-07-09T13:59:32;41.41;36.89;64.97;;
72028;Laerm;59781;52.090;5.030;2023-07-09T14:01:59;41.33;37.73;51.73;;
72028;Laerm;59781;52.090;5.030;2023-07-09T14:04:27;40.83;37.04;56.33;;
72028;Laerm;59781;52.090;5.030;2023-07-09T14:06:54;45.20;37.21;73.20;;
72028;Laerm;59781;52.090;5.030;2023-07-09T14:09:20;43.59;37.27;58.95;;
72028;Laerm;59781;52.090;5.030;2023-07-09T14:11:54;43.45;36.57;62.26;;
72028;Laerm;59781;52.090;5.030;2023-07-09T14:16:48;43.39;37.01;58.76;;
72028;Laerm;59781;52.090;5.030;2023-07-09T14:19:18;44.93;37.90;69.85;;
72028;Laerm;59781;52.090;5.030;2023-07-09T14:21:47;42.24;37.63;65.85;;
72028;Laerm;59781;52.090;5.030;2023-07-09T14:24:24;46.20;37.24;70.17;;
72028;Laerm;59781;52.090;5.030;2023-07-09T14:26:54;40.99;36.58;60.27;;
72028;Laerm;59781;52.090;5.030;2023-07-09T14:29:21;41.40;36.66;62.04;;